createdAt,value
2019-05-18T00:00:49.358Z,1001.39
2019-05-18T00:02:42.261Z,1001.38
2019-05-18T00:03:42.261Z,1001.36
2019-05-18T00:05:35.164Z,1001.38
2019-05-18T00:06:35.176Z,1001.37
2019-05-18T00:08:28.086Z,1001.36
2019-05-18T00:09:28.092Z,1001.30
2019-05-18T00:11:21.005Z,1001.30
2019-05-18T00:12:21.023Z,1001.32
2019-05-18T00:14:13.917Z,1001.31
2019-05-18T00:15:13.928Z,1001.35
2019-05-18T00:17:12.851Z,1001.31
2019-05-18T00:18:07.336Z,1001.32
2019-05-18T00:20:00.242Z,1001.29
2019-05-18T00:21:00.251Z,1001.27
2019-05-18T00:22:53.165Z,1001.29
2019-05-18T00:23:53.201Z,1001.25
2019-05-18T00:25:46.077Z,1001.24
2019-05-18T00:26:46.082Z,1001.26
2019-05-18T00:28:38.990Z,1001.28
2019-05-18T00:29:39.000Z,1001.27
2019-05-18T00:31:31.919Z,1001.21
2019-05-18T00:32:31.915Z,1001.19
2019-05-18T00:34:24.821Z,1001.19
2019-05-18T00:35:24.832Z,1001.18
2019-05-18T00:37:18.785Z,1001.20
2019-05-18T00:38:18.740Z,1001.17
2019-05-18T00:40:11.655Z,1001.13
2019-05-18T00:41:11.656Z,1001.15
2019-05-18T00:43:04.567Z,1001.14
2019-05-18T00:44:04.575Z,1001.14
2019-05-18T00:45:57.480Z,1001.15
2019-05-18T00:46:57.482Z,1001.11
2019-05-18T00:48:50.399Z,1001.12
2019-05-18T00:49:50.404Z,1001.13
2019-05-18T00:51:43.319Z,1001.10
2019-05-18T00:52:43.311Z,1001.11
2019-05-18T00:54:36.220Z,1001.10
2019-05-18T00:55:36.228Z,1001.12
2019-05-18T00:57:29.146Z,1001.15
2019-05-18T00:58:29.152Z,1001.12
2019-05-18T01:00:22.121Z,1001.13
2019-05-18T01:01:22.079Z,1001.13
2019-05-18T01:03:15.567Z,1001.12
2019-05-18T01:04:15.495Z,1001.12
2019-05-18T01:06:08.447Z,1001.13
2019-05-18T01:07:08.406Z,1001.12
2019-05-18T01:09:01.333Z,1001.12
2019-05-18T01:10:01.321Z,1001.13
2019-05-18T01:11:54.230Z,1001.08
2019-05-18T01:12:54.233Z,1001.10
2019-05-18T01:14:47.143Z,1001.14
2019-05-18T01:15:47.150Z,1001.11
2019-05-18T01:17:40.062Z,1001.13
2019-05-18T01:18:40.067Z,1001.12
2019-05-18T01:20:33.474Z,1001.11
2019-05-18T01:21:33.476Z,1001.09
2019-05-18T01:23:26.386Z,1001.04
2019-05-18T01:24:26.395Z,1001.05
2019-05-18T01:26:19.302Z,1001.03
2019-05-18T01:27:19.303Z,1001.01
2019-05-18T01:29:12.213Z,1001.01
2019-05-18T01:30:12.221Z,1001.02
2019-05-18T01:32:05.131Z,1001.03
2019-05-18T01:33:05.136Z,1000.96
2019-05-18T01:34:58.041Z,1001.00
2019-05-18T01:35:58.052Z,1000.98
2019-05-18T01:37:50.963Z,1000.98
2019-05-18T01:38:50.965Z,1000.95
2019-05-18T01:40:43.872Z,1000.97
2019-05-18T01:41:43.883Z,1001.00
2019-05-18T01:43:36.789Z,1000.97
2019-05-18T01:44:36.792Z,1000.99
2019-05-18T01:46:29.705Z,1000.95
2019-05-18T01:47:29.706Z,1000.96
2019-05-18T01:49:22.613Z,1000.94
2019-05-18T01:50:22.620Z,1000.91
2019-05-18T01:52:16.024Z,1000.94
2019-05-18T01:53:16.030Z,1000.94
2019-05-18T01:55:08.937Z,1000.94
2019-05-18T01:56:08.945Z,1000.88
2019-05-18T01:58:01.860Z,1000.92
2019-05-18T01:59:01.858Z,1000.95
2019-05-18T02:00:55.258Z,1000.93
2019-05-18T02:01:55.268Z,1000.96
2019-05-18T02:03:48.179Z,1000.94
2019-05-18T02:04:48.181Z,1000.92
2019-05-18T02:06:41.091Z,1000.92
2019-05-18T02:07:41.095Z,1000.92
2019-05-18T02:09:34.005Z,1000.93
2019-05-18T02:10:34.013Z,1000.96
2019-05-18T02:12:26.930Z,1000.94
2019-05-18T02:13:26.931Z,1000.99
2019-05-18T02:15:19.831Z,1000.95
2019-05-18T02:16:19.840Z,1001.03
2019-05-18T02:18:14.160Z,1000.98
2019-05-18T02:19:12.756Z,1000.98
2019-05-18T02:21:05.663Z,1001.00
2019-05-18T02:22:05.667Z,1000.99
2019-05-18T02:23:58.575Z,1001.02
2019-05-18T02:24:58.580Z,1000.99
2019-05-18T02:26:51.984Z,1001.01
2019-05-18T02:27:51.989Z,1001.04
2019-05-18T02:29:44.894Z,1001.01
2019-05-18T02:30:44.902Z,1001.00
2019-05-18T02:32:37.813Z,1001.02
2019-05-18T02:33:37.828Z,1000.99
2019-05-18T02:35:30.731Z,1000.97
2019-05-18T02:36:30.732Z,1000.99
2019-05-18T02:38:23.644Z,1000.98
2019-05-18T02:39:23.648Z,1000.98
2019-05-18T02:41:16.554Z,1000.96
2019-05-18T02:42:16.562Z,1000.95
2019-05-18T02:44:09.473Z,1000.92
2019-05-18T02:45:09.479Z,1000.93
2019-05-18T02:47:02.428Z,1000.92
2019-05-18T02:48:02.389Z,1000.88
2019-05-18T02:49:55.303Z,1000.89
2019-05-18T02:50:55.303Z,1000.80
2019-05-18T02:52:48.233Z,1000.78
2019-05-18T02:53:48.224Z,1000.80
2019-05-18T02:55:41.623Z,1000.79
2019-05-18T02:56:41.626Z,1000.79
2019-05-18T02:58:34.533Z,1000.79
2019-05-18T02:59:34.536Z,1000.78
2019-05-18T03:01:27.935Z,1000.80
2019-05-18T03:02:27.946Z,1000.82
2019-05-18T03:04:20.858Z,1000.80
2019-05-18T03:05:20.868Z,1000.79
2019-05-18T03:07:13.775Z,1000.81
2019-05-18T03:08:13.774Z,1000.79
2019-05-18T03:10:06.679Z,1000.79
2019-05-18T03:11:06.688Z,1000.78
2019-05-18T03:12:59.598Z,1000.76
2019-05-18T03:13:59.603Z,1000.78
2019-05-18T03:15:52.508Z,1000.76
2019-05-18T03:16:52.521Z,1000.82
2019-05-18T03:18:45.509Z,1000.76
2019-05-18T03:19:45.431Z,1000.78
2019-05-18T03:21:38.357Z,1000.77
2019-05-18T03:22:38.340Z,1000.76
2019-05-18T03:24:31.251Z,1000.76
2019-05-18T03:25:31.254Z,1000.75
2019-05-18T03:27:24.165Z,1000.75
2019-05-18T03:28:24.172Z,1000.78
2019-05-18T03:30:17.074Z,1000.79
2019-05-18T03:31:17.082Z,1000.81
2019-05-18T03:33:10.113Z,1000.75
2019-05-18T03:34:09.993Z,1000.73
2019-05-18T03:36:02.897Z,1000.68
2019-05-18T03:37:02.909Z,1000.73
2019-05-18T03:38:55.814Z,1000.72
2019-05-18T03:39:55.820Z,1000.73
2019-05-18T03:41:48.729Z,1000.74
2019-05-18T03:42:48.741Z,1000.75
2019-05-18T03:44:41.638Z,1000.78
2019-05-18T03:45:41.643Z,1000.75
2019-05-18T03:47:34.556Z,1000.75
2019-05-18T03:48:34.559Z,1000.73
2019-05-18T03:50:27.466Z,1000.71
2019-05-18T03:51:27.475Z,1000.71
2019-05-18T03:53:20.383Z,1000.71
2019-05-18T03:54:20.382Z,1000.70
2019-05-18T03:56:13.289Z,1000.68
2019-05-18T03:57:13.298Z,1000.64
2019-05-18T03:59:06.222Z,1000.65
2019-05-18T04:00:06.217Z,1000.67
2019-05-18T04:01:59.121Z,1000.70
2019-05-18T04:02:59.129Z,1000.71
2019-05-18T04:04:52.030Z,1000.73
2019-05-18T04:05:52.039Z,1000.72
2019-05-18T04:07:44.952Z,1000.73
2019-05-18T04:08:44.953Z,1000.70
2019-05-18T04:10:37.862Z,1000.72
2019-05-18T04:11:37.878Z,1000.75
2019-05-18T04:13:30.772Z,1000.76
2019-05-18T04:14:30.782Z,1000.74
2019-05-18T04:16:23.699Z,1000.77
2019-05-18T04:17:23.792Z,1000.79
2019-05-18T04:19:16.602Z,1000.83
2019-05-18T04:20:16.609Z,1000.84
2019-05-18T04:22:09.532Z,1000.86
2019-05-18T04:23:09.530Z,1000.87
2019-05-18T04:25:02.436Z,1000.89
2019-05-18T04:26:02.446Z,1000.90
2019-05-18T04:27:55.376Z,1000.91
2019-05-18T04:28:55.364Z,1000.90
2019-05-18T04:30:48.272Z,1000.86
2019-05-18T04:31:48.316Z,1000.85
2019-05-18T04:33:41.201Z,1000.86
2019-05-18T04:34:41.305Z,1000.89
2019-05-18T04:36:34.117Z,1000.87
2019-05-18T04:37:34.127Z,1000.86
2019-05-18T04:39:27.039Z,1000.88
2019-05-18T04:40:27.045Z,1000.91
2019-05-18T04:42:19.969Z,1000.94
2019-05-18T04:43:19.972Z,1000.96
2019-05-18T04:45:12.898Z,1000.94
2019-05-18T04:46:12.897Z,1000.98
2019-05-18T04:48:05.819Z,1000.97
2019-05-18T04:49:05.823Z,1000.96
2019-05-18T04:50:58.736Z,1000.97
2019-05-18T04:51:58.749Z,1000.99
2019-05-18T04:53:51.670Z,1000.97
2019-05-18T04:54:51.676Z,1001.03
2019-05-18T04:56:44.598Z,1001.03
2019-05-18T04:57:44.602Z,1001.10
2019-05-18T04:59:37.515Z,1001.07
2019-05-18T05:00:37.530Z,1001.06
2019-05-18T05:02:30.451Z,1001.08
2019-05-18T05:03:30.460Z,1001.05
2019-05-18T05:05:23.373Z,1001.06
2019-05-18T05:06:23.389Z,1001.06
2019-05-18T05:08:16.310Z,1001.10
2019-05-18T05:09:16.319Z,1001.07
2019-05-18T05:11:09.251Z,1001.11
2019-05-18T05:12:09.248Z,1001.08
2019-05-18T05:14:02.723Z,1001.15
2019-05-18T05:15:02.678Z,1001.16
2019-05-18T05:16:55.601Z,1001.14
2019-05-18T05:17:55.611Z,1001.15
2019-05-18T05:19:48.526Z,1001.12
2019-05-18T05:20:48.541Z,1001.09
2019-05-18T05:22:41.476Z,1001.08
2019-05-18T05:23:41.475Z,1001.09
2019-05-18T05:25:34.394Z,1000.99
2019-05-18T05:26:34.410Z,1000.99
2019-05-18T05:28:27.345Z,1000.97
2019-05-18T05:29:27.359Z,1000.97
2019-05-18T05:31:20.767Z,1000.96
2019-05-18T05:32:20.788Z,1000.96
2019-05-18T05:34:13.721Z,1001.01
2019-05-18T05:35:13.721Z,1000.97
2019-05-18T05:37:06.643Z,1001.01
2019-05-18T05:38:06.654Z,1001.05
2019-05-18T05:39:59.581Z,1001.05
2019-05-18T05:40:59.607Z,1001.04
2019-05-18T05:42:52.511Z,1001.04
2019-05-18T05:43:52.521Z,1001.02
2019-05-18T05:45:45.437Z,1001.01
2019-05-18T05:46:45.454Z,1000.99
2019-05-18T05:48:38.379Z,1001.03
2019-05-18T05:49:38.394Z,1001.02
2019-05-18T05:51:31.309Z,1001.06
2019-05-18T05:52:31.327Z,1001.08
2019-05-18T05:54:24.255Z,1001.04
2019-05-18T05:55:24.271Z,1001.12
2019-05-18T05:57:17.192Z,1001.09
2019-05-18T05:58:17.299Z,1001.07
2019-05-18T06:00:10.141Z,1001.11
2019-05-18T06:01:10.147Z,1001.13
2019-05-18T06:03:03.074Z,1001.13
2019-05-18T06:04:03.089Z,1001.14
2019-05-18T06:05:56.018Z,1001.15
2019-05-18T06:06:56.039Z,1001.17
2019-05-18T06:08:48.965Z,1001.18
2019-05-18T06:09:48.979Z,1001.21
2019-05-18T06:11:41.907Z,1001.22
2019-05-18T06:12:41.919Z,1001.18
2019-05-18T06:14:34.848Z,1001.21
2019-05-18T06:15:34.904Z,1001.25
2019-05-18T06:17:27.788Z,1001.22
2019-05-18T06:18:27.810Z,1001.24
2019-05-18T06:20:20.749Z,1001.23
2019-05-18T06:21:20.763Z,1001.23
2019-05-18T06:23:13.686Z,1001.28
2019-05-18T06:24:13.701Z,1001.28
2019-05-18T06:26:06.639Z,1001.28
2019-05-18T06:27:06.672Z,1001.28
2019-05-18T06:28:59.575Z,1001.25
2019-05-18T06:29:59.590Z,1001.27
2019-05-18T06:31:52.517Z,1001.24
2019-05-18T06:32:52.546Z,1001.29
2019-05-18T06:34:45.475Z,1001.27
2019-05-18T06:35:45.492Z,1001.27
2019-05-18T06:37:38.419Z,1001.28
2019-05-18T06:38:38.441Z,1001.24
2019-05-18T06:40:31.371Z,1001.22
2019-05-18T06:41:31.384Z,1001.20
2019-05-18T06:43:24.339Z,1001.22
2019-05-18T06:44:24.343Z,1001.20
2019-05-18T06:46:17.265Z,1001.22
2019-05-18T06:47:17.286Z,1001.23
2019-05-18T06:49:10.230Z,1001.22
2019-05-18T06:50:12.235Z,1001.23
2019-05-18T06:52:03.169Z,1001.19
2019-05-18T06:53:03.214Z,1001.21
2019-05-18T06:54:56.125Z,1001.23
2019-05-18T06:55:56.141Z,1001.24
2019-05-18T06:57:49.567Z,1001.23
2019-05-18T06:58:49.586Z,1001.29
2019-05-18T07:00:42.524Z,1001.29
2019-05-18T07:01:42.545Z,1001.30
2019-05-18T07:03:35.471Z,1001.30
2019-05-18T07:04:35.494Z,1001.23
2019-05-18T07:06:28.426Z,1001.22
2019-05-18T07:07:28.439Z,1001.22
2019-05-18T07:09:22.194Z,1001.19
2019-05-18T07:10:21.894Z,1001.20
2019-05-18T07:12:14.829Z,1001.20
2019-05-18T07:13:14.856Z,1001.20
2019-05-18T07:15:07.788Z,1001.22
2019-05-18T07:16:07.807Z,1001.22
2019-05-18T07:18:00.897Z,1001.23
2019-05-18T07:19:00.790Z,1001.23
2019-05-18T07:20:53.727Z,1001.26
2019-05-18T07:21:53.743Z,1001.25
2019-05-18T07:23:46.669Z,1001.17
2019-05-18T07:24:46.689Z,1001.21
2019-05-18T07:26:39.637Z,1001.20
2019-05-18T07:27:39.652Z,1001.10
2019-05-18T07:29:32.583Z,1001.14
2019-05-18T07:30:32.592Z,1001.16
2019-05-18T07:32:25.526Z,1001.13
2019-05-18T07:33:25.548Z,1001.12
2019-05-18T07:35:18.479Z,1001.09
2019-05-18T07:36:18.497Z,1001.09
2019-05-18T07:38:11.441Z,1001.06
2019-05-18T07:39:11.443Z,1001.10
2019-05-18T07:41:04.354Z,1001.09
2019-05-18T07:42:04.369Z,1001.08
2019-05-18T07:43:57.305Z,1001.11
2019-05-18T07:44:57.363Z,1001.10
2019-05-18T07:46:50.255Z,1001.13
2019-05-18T07:47:50.273Z,1001.14
2019-05-18T07:49:43.192Z,1001.15
2019-05-18T07:50:43.209Z,1001.14
2019-05-18T07:52:36.128Z,1001.14
2019-05-18T07:53:36.139Z,1001.15
2019-05-18T07:55:29.067Z,1001.17
2019-05-18T07:56:29.076Z,1001.20
2019-05-18T07:58:22.030Z,1001.21
2019-05-18T07:59:22.014Z,1001.19
2019-05-18T08:01:14.961Z,1001.19
2019-05-18T08:02:14.952Z,1001.21
2019-05-18T08:04:07.872Z,1001.24
2019-05-18T08:05:07.889Z,1001.21
2019-05-18T08:07:00.830Z,1001.23
2019-05-18T08:08:00.824Z,1001.23
2019-05-18T08:09:53.747Z,1001.23
2019-05-18T08:10:53.761Z,1001.23
2019-05-18T08:12:46.692Z,1001.24
2019-05-18T08:13:46.702Z,1001.22
2019-05-18T08:15:39.632Z,1001.19
2019-05-18T08:16:39.642Z,1001.14
2019-05-18T08:18:32.566Z,1001.11
2019-05-18T08:19:32.581Z,1001.09
2019-05-18T08:21:25.505Z,1001.08
2019-05-18T08:22:25.517Z,1001.07
2019-05-18T08:24:18.437Z,1001.08
2019-05-18T08:25:18.454Z,1001.07
2019-05-18T08:27:11.380Z,1001.04
2019-05-18T08:28:11.399Z,1001.02
2019-05-18T08:30:04.313Z,1001.08
2019-05-18T08:31:04.331Z,1001.08
2019-05-18T08:32:57.256Z,1001.07
2019-05-18T08:33:57.267Z,1001.06
2019-05-18T08:35:50.196Z,1001.07
2019-05-18T08:36:50.208Z,1001.02
2019-05-18T08:38:43.131Z,1001.08
2019-05-18T08:39:43.149Z,1001.05
2019-05-18T08:41:36.073Z,1001.06
2019-05-18T08:42:36.084Z,1001.04
2019-05-18T08:44:29.005Z,1001.07
2019-05-18T08:45:29.024Z,1001.07
2019-05-18T08:47:22.099Z,1001.01
2019-05-18T08:48:22.110Z,1001.09
2019-05-18T08:50:15.034Z,1001.04
2019-05-18T08:51:15.050Z,1001.03
2019-05-18T08:53:07.984Z,1001.06
2019-05-18T08:54:07.991Z,1001.10
2019-05-18T08:56:00.918Z,1001.05
2019-05-18T08:57:00.965Z,1001.08
2019-05-18T08:58:53.849Z,1001.12
2019-05-18T08:59:53.870Z,1001.11
2019-05-18T09:01:46.796Z,1001.10
2019-05-18T09:02:46.804Z,1001.11
2019-05-18T09:04:39.724Z,1001.11
2019-05-18T09:05:39.740Z,1001.07
2019-05-18T09:07:32.669Z,1001.11
2019-05-18T09:08:32.684Z,1001.08
2019-05-18T09:10:25.600Z,1001.03
2019-05-18T09:11:25.621Z,1001.05
2019-05-18T09:13:18.756Z,1001.05
2019-05-18T09:14:18.562Z,1001.06
2019-05-18T09:16:11.481Z,1001.06
2019-05-18T09:17:11.496Z,1001.04
2019-05-18T09:19:04.427Z,1001.04
2019-05-18T09:20:04.435Z,1001.03
2019-05-18T09:21:57.370Z,1001.03
2019-05-18T09:22:57.382Z,1001.00
2019-05-18T09:24:50.305Z,1001.04
2019-05-18T09:25:50.322Z,1001.04
2019-05-18T09:27:43.249Z,1001.05
2019-05-18T09:28:43.263Z,1001.06
2019-05-18T09:30:36.185Z,1001.07
2019-05-18T09:31:36.211Z,1001.07
2019-05-18T09:33:29.134Z,1001.08
2019-05-18T09:34:29.147Z,1001.05
2019-05-18T09:36:22.078Z,1001.05
2019-05-18T09:37:22.084Z,1001.03
2019-05-18T09:39:15.014Z,1001.02
2019-05-18T09:40:15.035Z,1001.05
2019-05-18T09:42:07.960Z,1000.99
2019-05-18T09:43:07.972Z,1001.02
2019-05-18T09:45:00.897Z,1001.02
2019-05-18T09:46:00.912Z,1001.02
2019-05-18T09:47:53.841Z,1001.01
2019-05-18T09:48:53.853Z,1001.05
2019-05-18T09:50:46.808Z,1001.07
2019-05-18T09:51:46.796Z,1001.07
2019-05-18T09:53:50.738Z,1001.05
2019-05-18T09:54:39.738Z,1001.12
2019-05-18T09:56:32.664Z,1001.11
2019-05-18T09:57:32.677Z,1001.08
2019-05-18T09:59:25.611Z,1001.06
2019-05-18T10:00:25.621Z,1001.04
2019-05-18T10:02:18.549Z,1001.02
2019-05-18T10:03:18.565Z,1001.00
2019-05-18T10:05:11.524Z,1001.05
2019-05-18T10:06:11.551Z,1001.01
2019-05-18T10:08:04.436Z,1000.97
2019-05-18T10:09:04.450Z,1000.99
2019-05-18T10:10:57.371Z,1000.98
2019-05-18T10:11:57.389Z,1000.98
2019-05-18T10:13:50.321Z,1000.97
2019-05-18T10:14:50.345Z,1000.93
2019-05-18T10:16:43.260Z,1000.97
2019-05-18T10:17:43.272Z,1001.00
2019-05-18T10:19:36.196Z,1000.99
2019-05-18T10:20:36.215Z,1001.04
2019-05-18T10:22:29.167Z,1000.98
2019-05-18T10:23:29.169Z,1001.02
2019-05-18T10:25:22.077Z,1000.96
2019-05-18T10:26:22.095Z,1000.92
2019-05-18T10:28:15.023Z,1000.91
2019-05-18T10:29:15.036Z,1000.92
2019-05-18T10:31:07.964Z,1000.91
2019-05-18T10:32:07.986Z,1000.94
2019-05-18T10:34:00.922Z,1000.89
2019-05-18T10:35:00.922Z,1000.92
2019-05-18T10:36:54.411Z,1000.89
2019-05-18T10:37:54.359Z,1000.86
2019-05-18T10:39:47.295Z,1000.85
2019-05-18T10:40:47.302Z,1000.93
2019-05-18T10:42:40.348Z,1000.91
2019-05-18T10:43:40.285Z,1000.91
2019-05-18T10:45:33.167Z,1000.87
2019-05-18T10:46:33.186Z,1000.89
2019-05-18T10:48:26.117Z,1000.89
2019-05-18T10:49:26.126Z,1000.88
2019-05-18T10:51:19.054Z,1000.90
2019-05-18T10:52:19.080Z,1000.90
2019-05-18T10:54:12.007Z,1000.89
2019-05-18T10:55:12.018Z,1000.87
2019-05-18T10:57:04.951Z,1000.81
2019-05-18T10:58:04.963Z,1000.82
2019-05-18T10:59:57.891Z,1000.83
2019-05-18T11:00:57.907Z,1000.80
2019-05-18T11:02:50.841Z,1000.82
2019-05-18T11:03:50.851Z,1000.83
2019-05-18T11:05:43.778Z,1000.79
2019-05-18T11:06:43.804Z,1000.78
2019-05-18T11:08:38.503Z,1000.75
2019-05-18T11:09:36.742Z,1000.73
2019-05-18T11:11:29.673Z,1000.74
2019-05-18T11:12:29.691Z,1000.70
2019-05-18T11:14:23.123Z,1000.65
2019-05-18T11:15:23.163Z,1000.69
2019-05-18T11:17:16.127Z,1000.65
2019-05-18T11:18:16.117Z,1000.66
2019-05-18T11:20:09.008Z,1000.68
2019-05-18T11:21:09.025Z,1000.69
2019-05-18T11:23:01.964Z,1000.68
2019-05-18T11:24:01.979Z,1000.70
2019-05-18T11:25:54.906Z,1000.64
2019-05-18T11:26:54.924Z,1000.65
2019-05-18T11:28:47.857Z,1000.65
2019-05-18T11:29:47.873Z,1000.69
2019-05-18T11:31:40.797Z,1000.64
2019-05-18T11:32:40.871Z,1000.64
2019-05-18T11:34:33.824Z,1000.67
2019-05-18T11:35:33.763Z,1000.65
2019-05-18T11:37:26.699Z,1000.66
2019-05-18T11:38:26.714Z,1000.63
2019-05-18T11:40:19.646Z,1000.61
2019-05-18T11:41:19.664Z,1000.65
2019-05-18T11:43:12.606Z,1000.69
2019-05-18T11:44:12.621Z,1000.68
2019-05-18T11:46:06.544Z,1000.64
2019-05-18T11:47:06.562Z,1000.65
2019-05-18T11:48:59.990Z,1000.61
2019-05-18T11:50:00.011Z,1000.62
2019-05-18T11:51:52.935Z,1000.60
2019-05-18T11:52:52.960Z,1000.58
2019-05-18T11:54:45.921Z,1000.61
2019-05-18T11:55:45.938Z,1000.58
2019-05-18T11:57:38.872Z,1000.60
2019-05-18T11:58:38.884Z,1000.55
2019-05-18T12:00:31.811Z,1000.57
2019-05-18T12:01:31.833Z,1000.58
2019-05-18T12:03:24.767Z,1000.55
2019-05-18T12:04:24.784Z,1000.49
2019-05-18T12:06:17.708Z,1000.53
2019-05-18T12:07:17.736Z,1000.54
2019-05-18T12:09:10.661Z,1000.49
2019-05-18T12:10:10.678Z,1000.49
2019-05-18T12:12:04.099Z,1000.46
2019-05-18T12:13:04.123Z,1000.50
2019-05-18T12:14:57.055Z,1000.51
2019-05-18T12:15:57.065Z,1000.48
2019-05-18T12:17:49.999Z,1000.49
2019-05-18T12:18:50.013Z,1000.54
2019-05-18T12:20:43.462Z,1000.50
2019-05-18T12:21:43.463Z,1000.50
2019-05-18T12:23:36.391Z,1000.44
2019-05-18T12:24:36.492Z,1000.45
2019-05-18T12:26:29.896Z,1000.43
2019-05-18T12:27:29.347Z,1000.44
2019-05-18T12:29:22.278Z,1000.40
2019-05-18T12:30:22.329Z,1000.43
2019-05-18T12:32:15.275Z,1000.42
2019-05-18T12:33:15.298Z,1000.42
2019-05-18T12:35:08.222Z,1000.38
2019-05-18T12:36:08.237Z,1000.39
2019-05-18T12:38:01.196Z,1000.36
2019-05-18T12:39:01.183Z,1000.37
2019-05-18T12:40:54.604Z,1000.35
2019-05-18T12:41:54.623Z,1000.35
2019-05-18T12:43:47.555Z,1000.36
2019-05-18T12:44:47.565Z,1000.33
2019-05-18T12:46:40.492Z,1000.32
2019-05-18T12:47:40.511Z,1000.33
2019-05-18T12:49:33.441Z,1000.30
2019-05-18T12:50:33.454Z,1000.30
2019-05-18T12:52:26.382Z,1000.26
2019-05-18T12:53:26.398Z,1000.30
2019-05-18T12:55:19.833Z,1000.28
2019-05-18T12:56:19.837Z,1000.30
2019-05-18T12:58:13.266Z,1000.30
2019-05-18T12:59:13.275Z,1000.27
2019-05-18T13:01:06.207Z,1000.30
2019-05-18T13:02:06.222Z,1000.31
2019-05-18T13:03:59.151Z,1000.27
2019-05-18T13:04:59.164Z,1000.28
2019-05-18T13:06:52.089Z,1000.27
2019-05-18T13:07:52.106Z,1000.29
2019-05-18T13:09:45.044Z,1000.29
2019-05-18T13:10:45.056Z,1000.26
2019-05-18T13:12:38.476Z,1000.21
2019-05-18T13:13:38.498Z,1000.26
2019-05-18T13:15:32.426Z,1000.24
2019-05-18T13:16:32.441Z,1000.25
2019-05-18T13:18:26.869Z,1000.24
2019-05-18T13:19:26.884Z,1000.24
2019-05-18T13:21:19.822Z,1000.22
2019-05-18T13:22:19.832Z,1000.24
2019-05-18T13:24:12.771Z,1000.22
2019-05-18T13:25:12.788Z,1000.20
2019-05-18T13:27:05.717Z,1000.24
2019-05-18T13:28:05.732Z,1000.24
2019-05-18T13:29:58.665Z,1000.23
2019-05-18T13:30:58.683Z,1000.19
2019-05-18T13:32:51.617Z,1000.19
2019-05-18T13:33:51.651Z,1000.17
2019-05-18T13:35:45.705Z,1000.11
2019-05-18T13:36:45.085Z,1000.22
2019-05-18T13:38:38.018Z,1000.20
2019-05-18T13:39:38.032Z,1000.18
2019-05-18T13:41:30.982Z,1000.17
2019-05-18T13:42:30.987Z,1000.13
2019-05-18T13:44:23.918Z,1000.13
2019-05-18T13:45:23.943Z,1000.15
2019-05-18T13:47:16.869Z,1000.09
2019-05-18T13:48:16.884Z,1000.12
2019-05-18T13:50:09.817Z,1000.05
2019-05-18T13:51:09.837Z,1000.10
2019-05-18T13:53:03.286Z,1000.03
2019-05-18T13:54:03.287Z,1000.04
2019-05-18T13:55:56.709Z,1000.08
2019-05-18T13:56:56.731Z,1000.00
2019-05-18T13:58:49.666Z,999.99
2019-05-18T13:59:49.684Z,999.99
2019-05-18T14:01:42.611Z,999.99
2019-05-18T14:02:42.633Z,999.96
2019-05-18T14:04:35.565Z,999.94
2019-05-18T14:05:35.586Z,999.96
2019-05-18T14:07:28.515Z,999.94
2019-05-18T14:08:28.529Z,999.93
2019-05-18T14:10:21.463Z,999.95
2019-05-18T14:11:21.481Z,999.97
2019-05-18T14:13:15.407Z,1000.02
2019-05-18T14:14:15.422Z,999.95
2019-05-18T14:16:08.348Z,999.99
2019-05-18T14:17:08.368Z,1000.00
2019-05-18T14:19:01.300Z,999.96
2019-05-18T14:20:01.314Z,999.94
2019-05-18T14:21:54.735Z,999.92
2019-05-18T14:22:54.756Z,999.91
2019-05-18T14:24:47.693Z,999.97
2019-05-18T14:25:47.701Z,999.92
2019-05-18T14:27:40.633Z,999.86
2019-05-18T14:28:40.650Z,999.89
2019-05-18T14:30:33.581Z,999.90
2019-05-18T14:31:33.600Z,999.88
2019-05-18T14:33:26.547Z,999.88
2019-05-18T14:34:26.545Z,999.90
2019-05-18T14:36:19.469Z,999.85
2019-05-18T14:37:19.488Z,999.88
2019-05-18T14:39:12.429Z,999.88
2019-05-18T14:40:12.435Z,999.88
2019-05-18T14:42:05.360Z,999.91
2019-05-18T14:43:05.386Z,999.86
2019-05-18T14:44:58.316Z,999.87
2019-05-18T14:45:58.329Z,999.84
2019-05-18T14:47:51.753Z,999.86
2019-05-18T14:48:51.770Z,999.88
2019-05-18T14:50:44.787Z,999.92
2019-05-18T14:51:44.718Z,999.90
2019-05-18T14:53:38.146Z,999.95
2019-05-18T14:54:38.160Z,999.94
2019-05-18T14:56:31.085Z,999.94
2019-05-18T14:57:31.112Z,999.95
2019-05-18T14:59:24.039Z,999.91
2019-05-18T15:00:24.071Z,999.94
2019-05-18T15:02:16.978Z,999.94
2019-05-18T15:03:17.022Z,999.92
2019-05-18T15:05:09.930Z,999.90
2019-05-18T15:06:09.946Z,999.94
2019-05-18T15:08:02.875Z,999.95
2019-05-18T15:09:02.894Z,999.94
2019-05-18T15:10:55.830Z,999.97
2019-05-18T15:11:55.841Z,999.94
2019-05-18T15:13:49.278Z,999.94
2019-05-18T15:14:49.290Z,999.89
2019-05-18T15:16:42.718Z,999.90
2019-05-18T15:17:42.734Z,999.88
2019-05-18T15:19:35.669Z,999.93
2019-05-18T15:20:35.706Z,999.91
2019-05-18T15:22:28.618Z,999.83
2019-05-18T15:23:28.638Z,999.84
2019-05-18T15:25:21.576Z,999.89
2019-05-18T15:26:21.591Z,999.81
2019-05-18T15:28:14.514Z,999.87
2019-05-18T15:29:14.537Z,999.90
2019-05-18T15:31:07.463Z,999.91
2019-05-18T15:32:07.480Z,999.90
2019-05-18T15:34:00.416Z,999.91
2019-05-18T15:35:00.426Z,999.88
2019-05-18T15:36:53.357Z,999.82
2019-05-18T15:37:53.373Z,999.86
2019-05-18T15:39:46.306Z,999.85
2019-05-18T15:40:46.320Z,999.89
2019-05-18T15:42:39.241Z,999.91
2019-05-18T15:43:39.267Z,999.84
2019-05-18T15:45:32.194Z,999.80
2019-05-18T15:46:32.207Z,999.82
2019-05-18T15:48:25.230Z,999.85
2019-05-18T15:49:25.153Z,999.86
2019-05-18T15:51:18.081Z,999.87
2019-05-18T15:52:18.096Z,999.84
2019-05-18T15:54:11.028Z,999.83
2019-05-18T15:55:11.057Z,999.82
2019-05-18T15:57:03.969Z,999.88
2019-05-18T15:58:04.001Z,999.84
2019-05-18T15:59:56.921Z,999.85
2019-05-18T16:00:56.934Z,999.84
2019-05-18T16:02:49.892Z,999.91
2019-05-18T16:03:49.881Z,999.89
2019-05-18T16:05:42.810Z,999.82
2019-05-18T16:06:42.824Z,999.80
2019-05-18T16:08:35.753Z,999.81
2019-05-18T16:09:35.769Z,999.79
2019-05-18T16:11:28.700Z,999.78
2019-05-18T16:12:28.726Z,999.80
2019-05-18T16:14:21.645Z,999.79
2019-05-18T16:15:21.660Z,999.79
2019-05-18T16:17:15.080Z,999.82
2019-05-18T16:18:15.099Z,999.81
2019-05-18T16:20:08.526Z,999.77
2019-05-18T16:21:08.535Z,999.82
2019-05-18T16:23:01.470Z,999.82
2019-05-18T16:24:01.485Z,999.81
2019-05-18T16:25:54.416Z,999.87
2019-05-18T16:26:54.430Z,999.82
2019-05-18T16:28:47.355Z,999.81
2019-05-18T16:29:47.375Z,999.79
2019-05-18T16:31:40.306Z,999.78
2019-05-18T16:32:40.330Z,999.81
2019-05-18T16:34:33.259Z,999.79
2019-05-18T16:35:33.267Z,999.79
2019-05-18T16:37:26.192Z,999.78
2019-05-18T16:38:26.210Z,999.81
2019-05-18T16:40:19.139Z,999.80
2019-05-18T16:41:19.152Z,999.82
2019-05-18T16:43:12.075Z,999.81
2019-05-18T16:44:12.098Z,999.79
2019-05-18T16:46:05.523Z,999.78
2019-05-18T16:47:05.532Z,999.78
2019-05-18T16:48:58.455Z,999.76
2019-05-18T16:49:58.475Z,999.79
2019-05-18T16:51:51.477Z,999.76
2019-05-18T16:52:51.422Z,999.80
2019-05-18T16:54:44.350Z,999.77
2019-05-18T16:55:44.507Z,999.74
2019-05-18T16:57:37.283Z,999.79
2019-05-18T16:58:37.321Z,999.80
2019-05-18T17:00:30.760Z,999.81
2019-05-18T17:01:30.739Z,999.86
2019-05-18T17:03:23.663Z,999.84
2019-05-18T17:04:23.681Z,999.83
2019-05-18T17:06:16.673Z,999.80
2019-05-18T17:07:16.622Z,999.79
2019-05-18T17:09:10.042Z,999.79
2019-05-18T17:10:10.106Z,999.80
2019-05-18T17:12:03.013Z,999.83
2019-05-18T17:13:03.004Z,999.85
2019-05-18T17:14:55.928Z,999.85
2019-05-18T17:15:55.941Z,999.87
2019-05-18T17:17:48.866Z,999.87
2019-05-18T17:18:48.885Z,999.87
2019-05-18T17:20:41.812Z,999.86
2019-05-18T17:21:41.825Z,999.92
2019-05-18T17:23:34.746Z,999.84
2019-05-18T17:24:34.766Z,999.87
2019-05-18T17:26:27.693Z,999.88
2019-05-18T17:27:27.706Z,999.91
2019-05-18T17:29:21.131Z,999.91
2019-05-18T17:30:21.143Z,999.93
2019-05-18T17:32:14.072Z,999.96
2019-05-18T17:33:14.085Z,999.91